»·PEaware :: AAL2299 KPHX-KTUS

AAL2299 :: KPHX-KTUS

FLIGHT INFORMATION

Flight Status: Arrived
Operator:
American Airlines
More flights by this operator :: More flights under this callsign
Pilot: Max L. (36438)
Aircraft: AIRBUS A320
(A320)
More flights by this aircraft type
Origin: KPHX Phoenix Sky Harbor Intl
United States
Destination: KTUS Tucson Intl
United States
More flights between these airports :: More routes between these airports
Route: STRRM1 STRRM BASER DINGO DINGO5
File this flight plan on PilotEdge
Remarks:
Altitude:
(Current/Filed)
15,000ft
Speed:
(Current/Filed)
359kts
Departed: 13-Aug-23 01:17 PM
Arrived: 13-Aug-23 01:41 PM
Distance/Time
Traveled:
96nm/0:24
Distance/Time
To Go:
Arrived

Flight Plot

Page will automatically refresh every two minutes.

Flight plan parsing failed; only flown route is shown


Map Options




Map Legend


Flown Route
Filed Route
Departure Airport
Arrival Airport
Navaid (VOR, NDB)
Fix

Horizontal Profiles

Position Reports

Time Latitude Longitude Heading Altitude Ground
Speed
13-Aug-23 12:48 33.437619 -111.994875 105 1124ft 0kts
13-Aug-23 12:49 33.437619 -111.994875 105 1124ft 0kts
13-Aug-23 12:50 33.437619 -111.994875 105 1124ft 0kts
13-Aug-23 12:51 33.437619 -111.994875 105 1124ft 0kts
13-Aug-23 12:52 33.437619 -111.994875 105 1124ft 0kts
13-Aug-23 12:53 33.437619 -111.994875 105 1124ft 0kts
13-Aug-23 12:54 33.437619 -111.994875 105 1124ft 0kts
13-Aug-23 12:55 33.437619 -111.994875 105 1124ft 0kts
13-Aug-23 12:56 33.437619 -111.994875 105 1124ft 0kts
13-Aug-23 12:57 33.437619 -111.994875 105 1124ft 0kts
13-Aug-23 12:58 33.437619 -111.994875 105 1124ft 0kts
13-Aug-23 12:59 33.437619 -111.994875 105 1124ft 0kts
13-Aug-23 13:00 33.437619 -111.994875 105 1124ft 0kts
13-Aug-23 13:01 33.437619 -111.994875 105 1124ft 0kts
13-Aug-23 13:02 33.437619 -111.994875 105 1124ft 0kts
13-Aug-23 13:03 33.437619 -111.994875 105 1124ft 0kts
13-Aug-23 13:04 33.437619 -111.994875 105 1125ft 0kts
13-Aug-23 13:05 33.437654 -111.995033 90 1128ft 2kts
13-Aug-23 13:06 33.437476 -111.995312 0 1115ft 0kts
13-Aug-23 13:07 33.437476 -111.995312 0 1115ft 0kts
13-Aug-23 13:08 33.438107 -111.995310 0 1120ft 12kts
13-Aug-23 13:09 33.438337 -111.995308 0 1124ft 0kts
13-Aug-23 13:10 33.438385 -111.995308 0 1117ft 3kts
13-Aug-23 13:11 33.438395 -111.992473 145 1122ft 11kts
13-Aug-23 13:12 33.434362 -111.992397 199 1119ft 14kts
13-Aug-23 13:13 33.431984 -111.992751 222 1121ft 0kts
13-Aug-23 13:14 33.431984 -111.992751 222 1121ft 0kts
13-Aug-23 13:15 33.431195 -111.993667 235 1118ft 17kts
13-Aug-23 13:16 33.431514 -112.030476 276 1885ft 164kts
13-Aug-23 13:17 33.460191 -112.075619 310 3665ft 195kts
13-Aug-23 13:18 33.474523 -112.138235 229 5445ft 232kts
13-Aug-23 13:19 33.408506 -112.138030 160 7755ft 287kts
13-Aug-23 13:20 33.331562 -112.103395 159 10693ft 313kts
13-Aug-23 13:21 33.241192 -112.063631 160 12335ft 372kts
13-Aug-23 13:22 33.142285 -112.020456 160 14837ft 383kts
13-Aug-23 13:23 33.042215 -111.976848 160 14922ft 384kts
13-Aug-23 13:24 32.941568 -111.932916 160 14893ft 385kts
13-Aug-23 13:25 32.846245 -111.875898 145 14883ft 385kts
13-Aug-23 13:26 32.758354 -111.803058 145 14804ft 385kts
13-Aug-23 13:27 32.670317 -111.730391 145 14807ft 385kts
13-Aug-23 13:28 32.582101 -111.657694 145 14845ft 385kts
13-Aug-23 13:29 32.513511 -111.573094 126 12277ft 351kts
13-Aug-23 13:30 32.485297 -111.474487 99 10145ft 294kts
13-Aug-23 13:31 32.466442 -111.381939 109 7213ft 284kts
13-Aug-23 13:32 32.441841 -111.300897 109 6952ft 257kts
13-Aug-23 13:33 32.416057 -111.221984 124 6942ft 258kts
13-Aug-23 13:34 32.361630 -111.171947 165 6945ft 256kts
13-Aug-23 13:35 32.293537 -111.147317 144 6858ft 257kts
13-Aug-23 13:36 32.242621 -111.088303 134 5699ft 254kts
13-Aug-23 13:37 32.193992 -111.031004 134 4512ft 237kts
13-Aug-23 13:38 32.153817 -110.983734 135 3583ft 160kts
13-Aug-23 13:39 32.123490 -110.947982 135 2654ft 151kts
13-Aug-23 13:40 32.111750 -110.932214 354 2622ft 16kts
13-Aug-23 13:41 32.116356 -110.937232 315 2606ft 28kts
13-Aug-23 13:42 32.120820 -110.940907 9 2589ft 7kts
13-Aug-23 13:43 32.121100 -110.940279 82 2595ft 0kts
13-Aug-23 13:45 32.121100 -110.940279 82 2595ft 0kts
13-Aug-23 13:46 32.121100 -110.940279 82 2595ft 0kts

Navigation Log

Ident Type
Flight plan parsing failed, navigation log unavailable